Terminal Aerodrome Forecast
Issued by NWS Charleston, WV

Current Version | Previous Version | Graphics & Text | Print | Product List | Glossary On
Versions: 1 2 3 4 5 6 7 8 9 10 11 12 13 14 15 16 17 18 19 20 21 22 23 24 25 26
000
FTUS41 KRLX 261739
TAFPKB
TAF
KPKB 261739Z 2618/2718 22005KT P6SM SCT040 BKN060
     FM261900 27004KT P6SM VCTS BKN040CB
     FM270200 00000KT 6SM HZ BKN045
     FM270600 VRB03KT 5SM BR SCT030
     FM270900 VRB03KT 4SM BR BKN025
     FM271400 35004KT 6SM HZ SCT030
     FM271700 35004KT P6SM SCT040=

USA.gov is the U.S. government's official web portal to all federal, state and local government web resources and services.